Jermyn, Texas
Current Conditions -  °F | °C
As of 4:10 PM on Sunday 23 Nov 2014 (Local Time) from KRPH Reporting Station
Clear Clear  
Wind Chill: 65°   Ceiling: Unl
Heat Index: 65°   Visibility: 10mi
Dew Point: 42°   Wind: 20mph
Humidity: 43%   Direction: 300°WNW
Pressure: 29.54"   Gusts: 33mph
Location:  33.26°N, 98.39°W
Report Text: KRPH 232210Z AUTO 30017G29KT 10SM CLR 19/06 A2954 RMK AO2 T01850058
Loading
Personal Weather Stations






























Interactive Weather Map New forecast layout! Learn more

10-Day Weather Forecast

Advertisements
Track Severe Weather on mobile